sensor_id;sensor_type;location;lat;lon;timestamp;P1;durP1;ratioP1;P2;durP2;ratioP2
13267;SDS011;6702;47.068;15.458;2022-07-29T00:00:32;8.93;;;7.97;;
13267;SDS011;6702;47.068;15.458;2022-07-29T00:03:36;7.80;;;7.30;;
13267;SDS011;6702;47.068;15.458;2022-07-29T00:06:40;8.17;;;7.43;;
13267;SDS011;6702;47.068;15.458;2022-07-29T00:09:43;8.17;;;7.50;;
13267;SDS011;6702;47.068;15.458;2022-07-29T00:12:52;7.57;;;6.93;;
13267;SDS011;6702;47.068;15.458;2022-07-29T00:15:57;8.13;;;7.53;;
13267;SDS011;6702;47.068;15.458;2022-07-29T00:19:05;8.50;;;7.90;;
13267;SDS011;6702;47.068;15.458;2022-07-29T00:22:08;7.50;;;7.00;;
13267;SDS011;6702;47.068;15.458;2022-07-29T00:25:11;8.67;;;7.97;;
13267;SDS011;6702;47.068;15.458;2022-07-29T00:28:15;8.80;;;8.10;;
13267;SDS011;6702;47.068;15.458;2022-07-29T00:31:19;8.10;;;7.33;;
13267;SDS011;6702;47.068;15.458;2022-07-29T00:34:23;8.00;;;7.40;;
13267;SDS011;6702;47.068;15.458;2022-07-29T00:37:43;7.90;;;7.20;;
13267;SDS011;6702;47.068;15.458;2022-07-29T00:40:46;7.30;;;6.70;;
13267;SDS011;6702;47.068;15.458;2022-07-29T00:43:50;8.33;;;7.73;;
13267;SDS011;6702;47.068;15.458;2022-07-29T00:46:54;7.37;;;6.77;;
13267;SDS011;6702;47.068;15.458;2022-07-29T00:49:57;8.07;;;7.40;;
13267;SDS011;6702;47.068;15.458;2022-07-29T00:53:01;7.83;;;7.23;;
13267;SDS011;6702;47.068;15.458;2022-07-29T00:56:05;7.10;;;6.60;;
13267;SDS011;6702;47.068;15.458;2022-07-29T00:59:08;7.37;;;6.77;;
13267;SDS011;6702;47.068;15.458;2022-07-29T01:02:12;7.67;;;7.07;;
13267;SDS011;6702;47.068;15.458;2022-07-29T01:05:16;7.73;;;7.10;;
13267;SDS011;6702;47.068;15.458;2022-07-29T01:08:23;8.27;;;7.67;;
13267;SDS011;6702;47.068;15.458;2022-07-29T01:11:26;7.93;;;7.10;;
13267;SDS011;6702;47.068;15.458;2022-07-29T01:14:30;8.67;;;8.00;;
13267;SDS011;6702;47.068;15.458;2022-07-29T01:17:36;6.93;;;6.33;;
13267;SDS011;6702;47.068;15.458;2022-07-29T01:24:34;8.40;;;7.70;;
13267;SDS011;6702;47.068;15.458;2022-07-29T01:28:00;7.83;;;7.23;;
13267;SDS011;6702;47.068;15.458;2022-07-29T01:31:15;7.60;;;7.07;;
13267;SDS011;6702;47.068;15.458;2022-07-29T01:34:28;7.53;;;6.93;;
13267;SDS011;6702;47.068;15.458;2022-07-29T01:37:46;7.90;;;7.20;;
13267;SDS011;6702;47.068;15.458;2022-07-29T01:40:56;7.20;;;6.60;;
13267;SDS011;6702;47.068;15.458;2022-07-29T01:44:11;7.93;;;7.33;;
13267;SDS011;6702;47.068;15.458;2022-07-29T01:47:20;6.90;;;6.30;;
13267;SDS011;6702;47.068;15.458;2022-07-29T01:50:30;7.00;;;6.40;;
13267;SDS011;6702;47.068;15.458;2022-07-29T01:53:37;8.10;;;7.50;;
13267;SDS011;6702;47.068;15.458;2022-07-29T01:56:47;7.97;;;7.37;;
13267;SDS011;6702;47.068;15.458;2022-07-29T01:59:53;7.47;;;6.87;;
13267;SDS011;6702;47.068;15.458;2022-07-29T02:03:00;8.37;;;7.57;;
13267;SDS011;6702;47.068;15.458;2022-07-29T02:06:07;7.90;;;7.30;;
13267;SDS011;6702;47.068;15.458;2022-07-29T02:09:13;7.53;;;6.90;;
13267;SDS011;6702;47.068;15.458;2022-07-29T02:12:18;7.37;;;6.70;;
13267;SDS011;6702;47.068;15.458;2022-07-29T02:15:23;7.67;;;6.97;;
13267;SDS011;6702;47.068;15.458;2022-07-29T02:18:29;8.30;;;7.20;;
13267;SDS011;6702;47.068;15.458;2022-07-29T02:21:33;7.20;;;6.70;;
13267;SDS011;6702;47.068;15.458;2022-07-29T02:24:37;8.17;;;7.47;;
13267;SDS011;6702;47.068;15.458;2022-07-29T02:27:42;7.97;;;7.27;;
13267;SDS011;6702;47.068;15.458;2022-07-29T02:30:47;8.67;;;7.90;;
13267;SDS011;6702;47.068;15.458;2022-07-29T02:33:54;8.40;;;7.80;;
13267;SDS011;6702;47.068;15.458;2022-07-29T02:36:58;7.53;;;6.93;;
13267;SDS011;6702;47.068;15.458;2022-07-29T02:40:02;7.80;;;7.20;;
13267;SDS011;6702;47.068;15.458;2022-07-29T02:43:06;7.97;;;7.30;;
13267;SDS011;6702;47.068;15.458;2022-07-29T02:46:12;8.70;;;8.03;;
13267;SDS011;6702;47.068;15.458;2022-07-29T02:49:38;8.90;;;8.27;;
13267;SDS011;6702;47.068;15.458;2022-07-29T02:52:47;8.50;;;7.80;;
13267;SDS011;6702;47.068;15.458;2022-07-29T02:55:58;7.50;;;6.63;;
13267;SDS011;6702;47.068;15.458;2022-07-29T02:59:05;7.97;;;7.37;;
13267;SDS011;6702;47.068;15.458;2022-07-29T03:02:12;8.33;;;7.63;;
13267;SDS011;6702;47.068;15.458;2022-07-29T03:05:18;8.67;;;8.00;;
13267;SDS011;6702;47.068;15.458;2022-07-29T03:08:23;8.70;;;8.10;;
13267;SDS011;6702;47.068;15.458;2022-07-29T03:11:27;8.20;;;7.50;;
13267;SDS011;6702;47.068;15.458;2022-07-29T03:14:49;8.00;;;7.40;;
13267;SDS011;6702;47.068;15.458;2022-07-29T03:17:53;9.37;;;8.57;;
13267;SDS011;6702;47.068;15.458;2022-07-29T03:20:58;10.20;;;9.17;;
13267;SDS011;6702;47.068;15.458;2022-07-29T03:24:01;11.37;;;8.80;;
13267;SDS011;6702;47.068;15.458;2022-07-29T03:27:10;9.43;;;8.57;;
13267;SDS011;6702;47.068;15.458;2022-07-29T03:30:14;7.80;;;7.10;;
13267;SDS011;6702;47.068;15.458;2022-07-29T03:33:22;8.27;;;7.67;;
13267;SDS011;6702;47.068;15.458;2022-07-29T03:36:27;8.87;;;8.27;;
13267;SDS011;6702;47.068;15.458;2022-07-29T03:39:31;8.10;;;7.40;;
13267;SDS011;6702;47.068;15.458;2022-07-29T03:42:39;8.57;;;7.97;;
13267;SDS011;6702;47.068;15.458;2022-07-29T03:45:47;8.10;;;7.50;;
13267;SDS011;6702;47.068;15.458;2022-07-29T03:48:52;7.90;;;7.30;;
13267;SDS011;6702;47.068;15.458;2022-07-29T03:52:02;8.47;;;7.87;;
13267;SDS011;6702;47.068;15.458;2022-07-29T03:55:06;9.03;;;8.20;;
13267;SDS011;6702;47.068;15.458;2022-07-29T03:58:10;8.20;;;7.57;;
13267;SDS011;6702;47.068;15.458;2022-07-29T04:01:15;7.97;;;7.37;;
13267;SDS011;6702;47.068;15.458;2022-07-29T04:04:19;8.07;;;7.37;;
13267;SDS011;6702;47.068;15.458;2022-07-29T04:07:24;8.70;;;8.00;;
13267;SDS011;6702;47.068;15.458;2022-07-29T04:10:27;7.77;;;7.27;;
13267;SDS011;6702;47.068;15.458;2022-07-29T04:13:34;8.47;;;7.73;;
13267;SDS011;6702;47.068;15.458;2022-07-29T04:16:37;8.50;;;7.80;;
13267;SDS011;6702;47.068;15.458;2022-07-29T04:19:40;8.50;;;7.73;;
13267;SDS011;6702;47.068;15.458;2022-07-29T04:22:45;9.00;;;8.10;;
13267;SDS011;6702;47.068;15.458;2022-07-29T04:25:48;8.77;;;7.50;;
13267;SDS011;6702;47.068;15.458;2022-07-29T04:28:51;8.87;;;8.17;;
13267;SDS011;6702;47.068;15.458;2022-07-29T04:31:54;8.63;;;7.83;;
13267;SDS011;6702;47.068;15.458;2022-07-29T04:34:57;8.47;;;7.77;;
13267;SDS011;6702;47.068;15.458;2022-07-29T04:38:02;9.20;;;8.40;;
13267;SDS011;6702;47.068;15.458;2022-07-29T04:41:06;8.10;;;7.50;;
13267;SDS011;6702;47.068;15.458;2022-07-29T04:44:11;8.47;;;7.87;;
13267;SDS011;6702;47.068;15.458;2022-07-29T04:47:14;8.37;;;7.67;;
13267;SDS011;6702;47.068;15.458;2022-07-29T04:50:18;8.93;;;8.13;;
13267;SDS011;6702;47.068;15.458;2022-07-29T04:53:22;8.07;;;7.37;;
13267;SDS011;6702;47.068;15.458;2022-07-29T04:56:25;10.30;;;9.40;;
13267;SDS011;6702;47.068;15.458;2022-07-29T04:59:28;10.83;;;9.93;;
13267;SDS011;6702;47.068;15.458;2022-07-29T05:02:32;9.03;;;8.30;;
13267;SDS011;6702;47.068;15.458;2022-07-29T05:05:35;9.17;;;8.47;;
13267;SDS011;6702;47.068;15.458;2022-07-29T05:08:39;9.37;;;8.47;;
13267;SDS011;6702;47.068;15.458;2022-07-29T05:11:43;9.17;;;8.47;;
13267;SDS011;6702;47.068;15.458;2022-07-29T05:14:46;9.17;;;8.47;;
13267;SDS011;6702;47.068;15.458;2022-07-29T05:17:49;10.83;;;9.90;;
13267;SDS011;6702;47.068;15.458;2022-07-29T05:20:52;9.30;;;8.60;;
13267;SDS011;6702;47.068;15.458;2022-07-29T05:23:56;9.50;;;8.60;;
13267;SDS011;6702;47.068;15.458;2022-07-29T05:27:00;9.10;;;8.40;;
13267;SDS011;6702;47.068;15.458;2022-07-29T05:30:03;8.70;;;8.00;;
13267;SDS011;6702;47.068;15.458;2022-07-29T05:33:07;9.77;;;9.07;;
13267;SDS011;6702;47.068;15.458;2022-07-29T05:36:30;8.80;;;8.00;;
13267;SDS011;6702;47.068;15.458;2022-07-29T05:39:34;10.20;;;9.20;;
13267;SDS011;6702;47.068;15.458;2022-07-29T05:42:51;10.00;;;9.30;;
13267;SDS011;6702;47.068;15.458;2022-07-29T05:45:54;9.27;;;8.37;;
13267;SDS011;6702;47.068;15.458;2022-07-29T05:48:57;9.60;;;8.80;;
13267;SDS011;6702;47.068;15.458;2022-07-29T05:52:00;9.30;;;8.60;;
13267;SDS011;6702;47.068;15.458;2022-07-29T05:55:05;8.60;;;8.00;;
13267;SDS011;6702;47.068;15.458;2022-07-29T05:58:09;9.03;;;8.23;;
13267;SDS011;6702;47.068;15.458;2022-07-29T06:01:12;14.30;;;9.30;;
13267;SDS011;6702;47.068;15.458;2022-07-29T06:04:15;26.33;;;10.10;;
13267;SDS011;6702;47.068;15.458;2022-07-29T06:07:19;10.57;;;9.67;;
13267;SDS011;6702;47.068;15.458;2022-07-29T06:10:24;10.40;;;8.47;;
13267;SDS011;6702;47.068;15.458;2022-07-29T06:13:28;9.17;;;8.40;;
13267;SDS011;6702;47.068;15.458;2022-07-29T06:16:31;8.90;;;8.10;;
13267;SDS011;6702;47.068;15.458;2022-07-29T06:19:34;9.97;;;8.53;;
13267;SDS011;6702;47.068;15.458;2022-07-29T06:22:37;11.00;;;7.47;;
13267;SDS011;6702;47.068;15.458;2022-07-29T06:25:42;9.40;;;8.70;;
13267;SDS011;6702;47.068;15.458;2022-07-29T06:28:45;9.60;;;8.80;;
13267;SDS011;6702;47.068;15.458;2022-07-29T06:31:50;9.60;;;8.80;;
13267;SDS011;6702;47.068;15.458;2022-07-29T06:34:53;9.40;;;8.70;;
13267;SDS011;6702;47.068;15.458;2022-07-29T06:38:16;9.00;;;8.30;;
13267;SDS011;6702;47.068;15.458;2022-07-29T06:41:35;9.20;;;8.40;;
13267;SDS011;6702;47.068;15.458;2022-07-29T06:44:38;8.23;;;7.50;;
13267;SDS011;6702;47.068;15.458;2022-07-29T06:47:43;7.90;;;7.30;;
13267;SDS011;6702;47.068;15.458;2022-07-29T06:50:47;8.15;;;7.53;;
13267;SDS011;6702;47.068;15.458;2022-07-29T06:53:50;9.20;;;8.48;;
13267;SDS011;6702;47.068;15.458;2022-07-29T06:57:04;8.85;;;8.15;;
13267;SDS011;6702;47.068;15.458;2022-07-29T07:00:07;8.40;;;7.70;;
13267;SDS011;6702;47.068;15.458;2022-07-29T07:03:11;8.45;;;7.78;;
13267;SDS011;6702;47.068;15.458;2022-07-29T07:06:15;7.97;;;7.38;;
13267;SDS011;6702;47.068;15.458;2022-07-29T07:09:18;7.65;;;7.15;;
13267;SDS011;6702;47.068;15.458;2022-07-29T07:12:22;7.50;;;6.75;;
13267;SDS011;6702;47.068;15.458;2022-07-29T07:15:26;7.53;;;6.97;;
13267;SDS011;6702;47.068;15.458;2022-07-29T07:18:40;7.43;;;6.80;;
13267;SDS011;6702;47.068;15.458;2022-07-29T07:21:43;8.43;;;7.72;;
13267;SDS011;6702;47.068;15.458;2022-07-29T07:24:46;7.80;;;7.07;;
13267;SDS011;6702;47.068;15.458;2022-07-29T07:27:50;12.13;;;8.07;;
13267;SDS011;6702;47.068;15.458;2022-07-29T07:30:54;8.10;;;7.47;;
13267;SDS011;6702;47.068;15.458;2022-07-29T07:33:57;7.00;;;6.30;;
13267;SDS011;6702;47.068;15.458;2022-07-29T07:37:00;8.15;;;7.47;;
13267;SDS011;6702;47.068;15.458;2022-07-29T07:40:04;14.18;;;10.90;;
13267;SDS011;6702;47.068;15.458;2022-07-29T07:43:09;10.48;;;9.48;;
13267;SDS011;6702;47.068;15.458;2022-07-29T07:46:12;8.10;;;7.60;;
13267;SDS011;6702;47.068;15.458;2022-07-29T07:49:15;7.07;;;6.53;;
13267;SDS011;6702;47.068;15.458;2022-07-29T07:52:19;8.40;;;7.05;;
13267;SDS011;6702;47.068;15.458;2022-07-29T07:55:24;7.05;;;6.45;;
13267;SDS011;6702;47.068;15.458;2022-07-29T07:58:29;5.95;;;5.45;;
13267;SDS011;6702;47.068;15.458;2022-07-29T08:01:32;9.25;;;7.30;;
13267;SDS011;6702;47.068;15.458;2022-07-29T08:04:55;6.18;;;5.68;;
13267;SDS011;6702;47.068;15.458;2022-07-29T08:07:59;7.93;;;7.22;;
13267;SDS011;6702;47.068;15.458;2022-07-29T08:11:02;11.40;;;10.43;;
13267;SDS011;6702;47.068;15.458;2022-07-29T08:14:11;6.63;;;6.13;;
13267;SDS011;6702;47.068;15.458;2022-07-29T08:17:15;6.25;;;5.85;;
13267;SDS011;6702;47.068;15.458;2022-07-29T08:20:18;5.90;;;5.50;;
13267;SDS011;6702;47.068;15.458;2022-07-29T08:23:22;7.43;;;6.93;;
13267;SDS011;6702;47.068;15.458;2022-07-29T08:26:25;6.32;;;5.72;;
13267;SDS011;6702;47.068;15.458;2022-07-29T08:29:30;6.78;;;6.28;;
13267;SDS011;6702;47.068;15.458;2022-07-29T08:32:34;6.10;;;5.70;;
13267;SDS011;6702;47.068;15.458;2022-07-29T08:35:53;6.43;;;6.03;;
13267;SDS011;6702;47.068;15.458;2022-07-29T08:38:56;5.43;;;4.88;;
13267;SDS011;6702;47.068;15.458;2022-07-29T08:42:00;6.38;;;5.78;;
13267;SDS011;6702;47.068;15.458;2022-07-29T08:45:05;6.35;;;5.85;;
13267;SDS011;6702;47.068;15.458;2022-07-29T08:48:09;7.72;;;7.13;;
13267;SDS011;6702;47.068;15.458;2022-07-29T08:51:14;7.15;;;6.55;;
13267;SDS011;6702;47.068;15.458;2022-07-29T08:54:18;9.75;;;6.80;;
13267;SDS011;6702;47.068;15.458;2022-07-29T08:57:23;6.20;;;5.65;;
13267;SDS011;6702;47.068;15.458;2022-07-29T09:00:29;7.07;;;6.47;;
13267;SDS011;6702;47.068;15.458;2022-07-29T09:03:33;7.40;;;6.80;;
13267;SDS011;6702;47.068;15.458;2022-07-29T09:06:39;6.95;;;6.45;;
13267;SDS011;6702;47.068;15.458;2022-07-29T09:09:46;6.20;;;5.80;;
13267;SDS011;6702;47.068;15.458;2022-07-29T09:12:50;6.90;;;6.22;;
13267;SDS011;6702;47.068;15.458;2022-07-29T09:15:55;9.27;;;6.65;;
13267;SDS011;6702;47.068;15.458;2022-07-29T09:18:58;6.65;;;6.25;;
13267;SDS011;6702;47.068;15.458;2022-07-29T09:22:02;6.60;;;6.00;;
13267;SDS011;6702;47.068;15.458;2022-07-29T09:25:07;7.97;;;7.43;;
13267;SDS011;6702;47.068;15.458;2022-07-29T09:28:11;7.10;;;6.50;;
13267;SDS011;6702;47.068;15.458;2022-07-29T09:31:16;7.22;;;6.15;;
13267;SDS011;6702;47.068;15.458;2022-07-29T09:34:23;6.13;;;5.72;;
13267;SDS011;6702;47.068;15.458;2022-07-29T09:37:27;7.65;;;6.90;;
13267;SDS011;6702;47.068;15.458;2022-07-29T09:40:31;7.70;;;7.10;;
13267;SDS011;6702;47.068;15.458;2022-07-29T09:43:35;7.30;;;6.63;;
13267;SDS011;6702;47.068;15.458;2022-07-29T09:46:40;6.82;;;6.32;;
13267;SDS011;6702;47.068;15.458;2022-07-29T09:49:55;7.77;;;6.97;;
13267;SDS011;6702;47.068;15.458;2022-07-29T09:52:59;7.88;;;7.18;;
13267;SDS011;6702;47.068;15.458;2022-07-29T09:56:03;7.30;;;6.60;;
13267;SDS011;6702;47.068;15.458;2022-07-29T09:59:07;7.50;;;6.80;;
13267;SDS011;6702;47.068;15.458;2022-07-29T10:02:14;8.85;;;7.32;;
13267;SDS011;6702;47.068;15.458;2022-07-29T10:05:24;8.15;;;7.53;;
13267;SDS011;6702;47.068;15.458;2022-07-29T10:08:37;7.47;;;6.88;;
13267;SDS011;6702;47.068;15.458;2022-07-29T10:11:40;7.50;;;6.85;;
13267;SDS011;6702;47.068;15.458;2022-07-29T10:14:50;6.97;;;6.47;;
13267;SDS011;6702;47.068;15.458;2022-07-29T10:17:55;6.40;;;6.00;;
13267;SDS011;6702;47.068;15.458;2022-07-29T10:20:59;7.65;;;7.10;;
13267;SDS011;6702;47.068;15.458;2022-07-29T10:24:03;7.07;;;6.47;;
13267;SDS011;6702;47.068;15.458;2022-07-29T10:27:15;6.63;;;6.13;;
13267;SDS011;6702;47.068;15.458;2022-07-29T10:30:19;6.67;;;6.17;;
13267;SDS011;6702;47.068;15.458;2022-07-29T10:33:29;6.53;;;5.93;;
13267;SDS011;6702;47.068;15.458;2022-07-29T10:36:50;6.70;;;6.17;;
13267;SDS011;6702;47.068;15.458;2022-07-29T10:40:00;7.33;;;5.97;;
13267;SDS011;6702;47.068;15.458;2022-07-29T10:43:27;7.23;;;6.60;;
13267;SDS011;6702;47.068;15.458;2022-07-29T10:46:34;7.07;;;6.40;;
13267;SDS011;6702;47.068;15.458;2022-07-29T10:49:40;6.70;;;6.10;;
13267;SDS011;6702;47.068;15.458;2022-07-29T10:53:01;6.80;;;6.20;;
13267;SDS011;6702;47.068;15.458;2022-07-29T10:56:14;6.20;;;5.70;;
13267;SDS011;6702;47.068;15.458;2022-07-29T10:59:27;6.87;;;6.27;;
13267;SDS011;6702;47.068;15.458;2022-07-29T11:02:46;5.93;;;5.43;;
13267;SDS011;6702;47.068;15.458;2022-07-29T11:05:56;5.95;;;5.38;;
13267;SDS011;6702;47.068;15.458;2022-07-29T11:09:14;6.68;;;6.07;;
13267;SDS011;6702;47.068;15.458;2022-07-29T11:12:47;6.10;;;5.70;;
13267;SDS011;6702;47.068;15.458;2022-07-29T11:15:53;6.97;;;5.78;;
13267;SDS011;6702;47.068;15.458;2022-07-29T11:22:33;6.03;;;5.63;;
13267;SDS011;6702;47.068;15.458;2022-07-29T11:25:46;6.40;;;5.88;;
13267;SDS011;6702;47.068;15.458;2022-07-29T11:29:37;6.75;;;5.53;;
13267;SDS011;6702;47.068;15.458;2022-07-29T11:32:43;6.40;;;5.90;;
13267;SDS011;6702;47.068;15.458;2022-07-29T11:36:08;8.32;;;7.03;;
13267;SDS011;6702;47.068;15.458;2022-07-29T11:39:28;6.07;;;5.60;;
13267;SDS011;6702;47.068;15.458;2022-07-29T11:42:38;7.15;;;6.35;;
13267;SDS011;6702;47.068;15.458;2022-07-29T11:45:52;7.00;;;6.50;;
13267;SDS011;6702;47.068;15.458;2022-07-29T11:48:55;6.45;;;5.95;;
13267;SDS011;6702;47.068;15.458;2022-07-29T11:51:59;6.22;;;5.72;;
13267;SDS011;6702;47.068;15.458;2022-07-29T11:55:06;8.80;;;6.47;;
13267;SDS011;6702;47.068;15.458;2022-07-29T11:58:10;7.70;;;7.10;;
13267;SDS011;6702;47.068;15.458;2022-07-29T12:01:15;6.22;;;5.72;;
13267;SDS011;6702;47.068;15.458;2022-07-29T12:04:19;7.93;;;6.43;;
13267;SDS011;6702;47.068;15.458;2022-07-29T12:07:26;6.70;;;6.10;;
13267;SDS011;6702;47.068;15.458;2022-07-29T12:10:37;7.03;;;6.40;;
13267;SDS011;6702;47.068;15.458;2022-07-29T12:13:40;7.22;;;6.63;;
13267;SDS011;6702;47.068;15.458;2022-07-29T12:16:43;7.68;;;6.97;;
13267;SDS011;6702;47.068;15.458;2022-07-29T12:19:46;7.03;;;6.30;;
13267;SDS011;6702;47.068;15.458;2022-07-29T12:22:51;6.88;;;6.35;;
13267;SDS011;6702;47.068;15.458;2022-07-29T12:25:57;9.50;;;6.68;;
13267;SDS011;6702;47.068;15.458;2022-07-29T12:29:00;7.85;;;7.05;;
13267;SDS011;6702;47.068;15.458;2022-07-29T12:32:11;6.63;;;6.22;;
13267;SDS011;6702;47.068;15.458;2022-07-29T12:35:20;7.60;;;6.88;;
13267;SDS011;6702;47.068;15.458;2022-07-29T12:38:24;8.70;;;6.68;;
13267;SDS011;6702;47.068;15.458;2022-07-29T12:41:28;7.38;;;6.68;;
13267;SDS011;6702;47.068;15.458;2022-07-29T12:44:45;7.60;;;6.90;;
13267;SDS011;6702;47.068;15.458;2022-07-29T12:47:52;6.85;;;6.25;;
13267;SDS011;6702;47.068;15.458;2022-07-29T12:50:55;6.30;;;5.85;;
13267;SDS011;6702;47.068;15.458;2022-07-29T12:54:03;7.35;;;6.30;;
13267;SDS011;6702;47.068;15.458;2022-07-29T12:57:09;6.90;;;6.40;;
13267;SDS011;6702;47.068;15.458;2022-07-29T13:00:22;7.35;;;6.75;;
13267;SDS011;6702;47.068;15.458;2022-07-29T13:03:26;6.82;;;6.18;;
13267;SDS011;6702;47.068;15.458;2022-07-29T13:06:37;6.85;;;6.22;;
13267;SDS011;6702;47.068;15.458;2022-07-29T13:09:46;6.60;;;6.10;;
13267;SDS011;6702;47.068;15.458;2022-07-29T13:13:03;6.28;;;5.78;;
13267;SDS011;6702;47.068;15.458;2022-07-29T13:16:07;6.78;;;6.28;;
13267;SDS011;6702;47.068;15.458;2022-07-29T13:19:11;7.13;;;6.53;;
13267;SDS011;6702;47.068;15.458;2022-07-29T13:22:15;8.52;;;7.70;;
13267;SDS011;6702;47.068;15.458;2022-07-29T13:25:23;7.85;;;6.82;;
13267;SDS011;6702;47.068;15.458;2022-07-29T13:28:28;7.80;;;7.10;;
13267;SDS011;6702;47.068;15.458;2022-07-29T13:31:31;7.07;;;6.57;;
13267;SDS011;6702;47.068;15.458;2022-07-29T13:34:34;7.63;;;6.80;;
13267;SDS011;6702;47.068;15.458;2022-07-29T13:37:38;7.68;;;6.97;;
13267;SDS011;6702;47.068;15.458;2022-07-29T13:40:41;8.00;;;7.35;;
13267;SDS011;6702;47.068;15.458;2022-07-29T13:43:46;7.70;;;6.93;;
13267;SDS011;6702;47.068;15.458;2022-07-29T13:46:50;41.72;;;24.15;;
13267;SDS011;6702;47.068;15.458;2022-07-29T13:49:53;37.17;;;20.80;;
13267;SDS011;6702;47.068;15.458;2022-07-29T13:52:56;9.57;;;8.32;;
13267;SDS011;6702;47.068;15.458;2022-07-29T13:55:59;9.00;;;6.80;;
13267;SDS011;6702;47.068;15.458;2022-07-29T13:59:04;7.85;;;7.15;;
13267;SDS011;6702;47.068;15.458;2022-07-29T14:02:07;7.30;;;6.60;;
13267;SDS011;6702;47.068;15.458;2022-07-29T14:05:11;8.40;;;7.55;;
13267;SDS011;6702;47.068;15.458;2022-07-29T14:08:14;7.95;;;7.15;;
13267;SDS011;6702;47.068;15.458;2022-07-29T14:11:17;10.18;;;9.18;;
13267;SDS011;6702;47.068;15.458;2022-07-29T14:14:22;24.55;;;15.05;;
13267;SDS011;6702;47.068;15.458;2022-07-29T14:17:25;23.90;;;15.63;;
13267;SDS011;6702;47.068;15.458;2022-07-29T14:20:28;24.75;;;15.82;;
13267;SDS011;6702;47.068;15.458;2022-07-29T14:23:32;18.13;;;13.68;;
13267;SDS011;6702;47.068;15.458;2022-07-29T14:26:35;7.65;;;7.07;;
13267;SDS011;6702;47.068;15.458;2022-07-29T14:29:39;7.75;;;7.15;;
13267;SDS011;6702;47.068;15.458;2022-07-29T14:32:43;7.20;;;6.70;;
13267;SDS011;6702;47.068;15.458;2022-07-29T14:35:46;8.02;;;7.40;;
13267;SDS011;6702;47.068;15.458;2022-07-29T14:38:49;8.80;;;8.07;;
13267;SDS011;6702;47.068;15.458;2022-07-29T14:41:52;8.98;;;8.10;;
13267;SDS011;6702;47.068;15.458;2022-07-29T14:44:57;7.95;;;7.13;;
13267;SDS011;6702;47.068;15.458;2022-07-29T14:48:01;8.00;;;7.20;;
13267;SDS011;6702;47.068;15.458;2022-07-29T14:51:04;8.50;;;7.32;;
13267;SDS011;6702;47.068;15.458;2022-07-29T14:54:08;7.88;;;7.18;;
13267;SDS011;6702;47.068;15.458;2022-07-29T14:57:11;7.78;;;7.28;;
13267;SDS011;6702;47.068;15.458;2022-07-29T15:00:16;9.40;;;8.43;;
13267;SDS011;6702;47.068;15.458;2022-07-29T15:03:20;7.68;;;7.00;;
13267;SDS011;6702;47.068;15.458;2022-07-29T15:06:24;8.15;;;7.53;;
13267;SDS011;6702;47.068;15.458;2022-07-29T15:09:28;8.07;;;6.95;;
13267;SDS011;6702;47.068;15.458;2022-07-29T15:12:31;7.97;;;7.25;;
13267;SDS011;6702;47.068;15.458;2022-07-29T15:15:35;6.80;;;6.30;;
13267;SDS011;6702;47.068;15.458;2022-07-29T15:18:39;7.47;;;6.88;;
13267;SDS011;6702;47.068;15.458;2022-07-29T15:21:42;7.22;;;6.63;;
13267;SDS011;6702;47.068;15.458;2022-07-29T15:24:59;7.07;;;6.57;;
13267;SDS011;6702;47.068;15.458;2022-07-29T15:28:03;7.18;;;6.72;;
13267;SDS011;6702;47.068;15.458;2022-07-29T15:31:09;7.63;;;7.03;;
13267;SDS011;6702;47.068;15.458;2022-07-29T15:34:12;8.40;;;7.72;;
13267;SDS011;6702;47.068;15.458;2022-07-29T15:37:16;6.18;;;5.68;;
13267;SDS011;6702;47.068;15.458;2022-07-29T15:40:19;7.35;;;6.72;;
13267;SDS011;6702;47.068;15.458;2022-07-29T15:43:22;7.78;;;7.07;;
13267;SDS011;6702;47.068;15.458;2022-07-29T15:46:28;7.20;;;6.68;;
13267;SDS011;6702;47.068;15.458;2022-07-29T15:49:48;7.20;;;6.70;;
13267;SDS011;6702;47.068;15.458;2022-07-29T15:52:51;7.32;;;6.65;;
13267;SDS011;6702;47.068;15.458;2022-07-29T15:55:55;7.05;;;6.55;;
13267;SDS011;6702;47.068;15.458;2022-07-29T15:58:58;7.30;;;6.47;;
13267;SDS011;6702;47.068;15.458;2022-07-29T16:02:03;6.80;;;6.30;;
13267;SDS011;6702;47.068;15.458;2022-07-29T16:05:06;6.55;;;6.00;;
13267;SDS011;6702;47.068;15.458;2022-07-29T16:08:10;7.00;;;6.40;;
13267;SDS011;6702;47.068;15.458;2022-07-29T16:11:13;7.10;;;6.55;;
13267;SDS011;6702;47.068;15.458;2022-07-29T16:14:16;7.93;;;7.18;;
13267;SDS011;6702;47.068;15.458;2022-07-29T16:17:21;6.53;;;6.07;;
13267;SDS011;6702;47.068;15.458;2022-07-29T16:20:24;10.20;;;7.22;;
13267;SDS011;6702;47.068;15.458;2022-07-29T16:23:27;7.18;;;6.57;;
13267;SDS011;6702;47.068;15.458;2022-07-29T16:26:30;7.30;;;6.75;;
13267;SDS011;6702;47.068;15.458;2022-07-29T16:29:34;7.47;;;6.97;;
13267;SDS011;6702;47.068;15.458;2022-07-29T16:32:39;7.32;;;6.63;;
13267;SDS011;6702;47.068;15.458;2022-07-29T16:35:42;8.25;;;7.60;;
13267;SDS011;6702;47.068;15.458;2022-07-29T16:38:46;6.82;;;6.32;;
13267;SDS011;6702;47.068;15.458;2022-07-29T16:41:49;7.57;;;7.05;;
13267;SDS011;6702;47.068;15.458;2022-07-29T16:44:56;8.40;;;7.13;;
13267;SDS011;6702;47.068;15.458;2022-07-29T16:48:00;8.32;;;7.38;;
13267;SDS011;6702;47.068;15.458;2022-07-29T16:51:06;7.47;;;6.97;;
13267;SDS011;6702;47.068;15.458;2022-07-29T16:54:14;7.05;;;6.50;;
13267;SDS011;6702;47.068;15.458;2022-07-29T16:57:17;7.75;;;7.15;;
13267;SDS011;6702;47.068;15.458;2022-07-29T17:00:21;6.82;;;6.32;;
13267;SDS011;6702;47.068;15.458;2022-07-29T17:03:25;7.95;;;7.45;;
13267;SDS011;6702;47.068;15.458;2022-07-29T17:06:28;7.88;;;7.32;;
13267;SDS011;6702;47.068;15.458;2022-07-29T17:09:32;7.10;;;6.65;;
13267;SDS011;6702;47.068;15.458;2022-07-29T17:12:36;7.75;;;7.15;;
13267;SDS011;6702;47.068;15.458;2022-07-29T17:15:40;7.00;;;6.50;;
13267;SDS011;6702;47.068;15.458;2022-07-29T17:18:45;9.33;;;7.20;;
13267;SDS011;6702;47.068;15.458;2022-07-29T17:21:49;7.20;;;6.70;;
13267;SDS011;6702;47.068;15.458;2022-07-29T17:24:52;7.00;;;6.40;;
13267;SDS011;6702;47.068;15.458;2022-07-29T17:27:55;7.50;;;6.90;;
13267;SDS011;6702;47.068;15.458;2022-07-29T17:31:01;8.03;;;7.43;;
13267;SDS011;6702;47.068;15.458;2022-07-29T17:34:06;7.77;;;7.17;;
13267;SDS011;6702;47.068;15.458;2022-07-29T17:37:09;7.60;;;7.10;;
13267;SDS011;6702;47.068;15.458;2022-07-29T17:40:13;7.83;;;7.30;;
13267;SDS011;6702;47.068;15.458;2022-07-29T17:43:16;8.23;;;7.70;;
13267;SDS011;6702;47.068;15.458;2022-07-29T17:46:20;7.90;;;7.30;;
13267;SDS011;6702;47.068;15.458;2022-07-29T17:49:26;8.43;;;7.73;;
13267;SDS011;6702;47.068;15.458;2022-07-29T17:52:29;7.43;;;6.90;;
13267;SDS011;6702;47.068;15.458;2022-07-29T17:55:32;8.10;;;7.30;;
13267;SDS011;6702;47.068;15.458;2022-07-29T17:58:36;7.30;;;6.70;;
13267;SDS011;6702;47.068;15.458;2022-07-29T18:01:39;7.80;;;7.20;;
13267;SDS011;6702;47.068;15.458;2022-07-29T18:04:44;7.60;;;7.10;;
13267;SDS011;6702;47.068;15.458;2022-07-29T18:07:51;7.07;;;6.53;;
13267;SDS011;6702;47.068;15.458;2022-07-29T18:10:56;8.83;;;8.13;;
13267;SDS011;6702;47.068;15.458;2022-07-29T18:13:59;9.27;;;8.57;;
13267;SDS011;6702;47.068;15.458;2022-07-29T18:17:02;8.97;;;8.27;;
13267;SDS011;6702;47.068;15.458;2022-07-29T18:20:07;8.53;;;7.73;;
13267;SDS011;6702;47.068;15.458;2022-07-29T18:23:12;9.73;;;8.83;;
13267;SDS011;6702;47.068;15.458;2022-07-29T18:26:15;9.10;;;8.40;;
13267;SDS011;6702;47.068;15.458;2022-07-29T18:29:18;8.77;;;8.10;;
13267;SDS011;6702;47.068;15.458;2022-07-29T18:32:22;9.43;;;8.63;;
13267;SDS011;6702;47.068;15.458;2022-07-29T18:35:31;8.53;;;7.93;;
13267;SDS011;6702;47.068;15.458;2022-07-29T18:38:34;9.43;;;8.60;;
13267;SDS011;6702;47.068;15.458;2022-07-29T18:41:37;9.37;;;8.67;;
13267;SDS011;6702;47.068;15.458;2022-07-29T18:44:51;8.20;;;7.60;;